Time;durP1;ratioP1;P1;durP2;ratioP2;P2;SDS_P1;SDS_P2;PMS_P1;PMS_P2;Temp;Humidity;BMP_temperature;BMP_pressure;BME280_temperature;BME280_humidity;BME280_pressure;Samples;Min_cycle;Max_cycle;Signal;HPM_P1;HPM_P2
2022/08/24 00:01:05;;;;;;;1.40;1.30;;;;;;;;;;10144369;28;20090;-66
2022/08/24 00:05:58;;;;;;;2.67;1.02;;;;;;;;;;10128130;28;20072;-66
2022/08/24 00:10:52;;;;;;;1.80;1.10;;;;;;;;;;10135502;28;20147;-67
2022/08/24 00:15:45;;;;;;;1.48;1.10;;;;;;;;;;10135634;28;20576;-69
2022/08/24 00:20:40;;;;;;;1.52;1.02;;;;;;;;;;10141674;28;20048;-68
2022/08/24 00:25:37;;;;;;;1.05;0.98;;;;;;;;;;10116975;28;20052;-68
2022/08/24 00:30:32;;;;;;;1.00;1.00;;;;;;;;;;10132442;28;20423;-68
2022/08/24 00:35:26;;;;;;;1.45;1.10;;;;;;;;;;10139677;28;20138;-68
2022/08/24 00:40:49;;;;;;;1.42;1.23;;;;;;;;;;10131096;28;20049;-67
2022/08/24 00:45:51;;;;;;;2.85;1.30;;;;;;;;;;10092757;28;20178;-66
2022/08/24 00:51:00;;;;;;;2.17;1.10;;;;;;;;;;10125599;28;20080;-68
2022/08/24 00:56:02;;;;;;;1.80;1.35;;;;;;;;;;10130491;28;20033;-68
2022/08/24 01:00:59;;;;;;;5.47;1.27;;;;;;;;;;10131662;28;20045;-68
2022/08/24 01:05:55;;;;;;;2.65;1.13;;;;;;;;;;10129951;28;20036;-68
2022/08/24 01:10:56;;;;;;;1.55;1.40;;;;;;;;;;10132748;28;20105;-67
2022/08/24 01:15:54;;;;;;;1.20;1.10;;;;;;;;;;10138320;28;20045;-68
2022/08/24 01:21:00;;;;;;;2.47;1.40;;;;;;;;;;10116657;28;20491;-68
2022/08/24 01:25:54;;;;;;;2.50;1.05;;;;;;;;;;10117120;28;20143;-67
2022/08/24 01:30:51;;;;;;;2.05;1.30;;;;;;;;;;10129769;28;20518;-68
2022/08/24 01:35:45;;;;;;;3.20;1.38;;;;;;;;;;10139599;28;20135;-67
2022/08/24 01:40:45;;;;;;;1.67;1.10;;;;;;;;;;10137628;28;20127;-66
2022/08/24 01:45:41;;;;;;;5.00;1.33;;;;;;;;;;10116528;28;20054;-67
2022/08/24 01:50:35;;;;;;;1.70;1.27;;;;;;;;;;10120436;28;20037;-67
2022/08/24 01:55:28;;;;;;;2.13;1.60;;;;;;;;;;10115284;28;20051;-67
2022/08/24 02:00:22;;;;;;;2.65;2.45;;;;;;;;;;10111825;28;20114;-67
2022/08/24 02:05:17;;;;;;;2.50;2.30;;;;;;;;;;10120626;28;20048;-67
2022/08/24 02:10:12;;;;;;;2.50;2.30;;;;;;;;;;10119641;28;20098;-66
2022/08/24 02:15:07;;;;;;;2.20;2.00;;;;;;;;;;10125644;28;20080;-66
2022/08/24 02:20:01;;;;;;;4.00;2.10;;;;;;;;;;10137193;28;20135;-66
2022/08/24 02:24:56;;;;;;;3.65;2.40;;;;;;;;;;10134399;28;20048;-66
2022/08/24 02:29:49;;;;;;;2.92;2.10;;;;;;;;;;10145334;28;20098;-66
2022/08/24 02:34:44;;;;;;;2.88;2.30;;;;;;;;;;10138563;28;20048;-66
2022/08/24 02:39:37;;;;;;;2.63;2.42;;;;;;;;;;10156784;28;20076;-67
2022/08/24 02:44:36;;;;;;;3.05;2.72;;;;;;;;;;10146385;28;20114;-67
2022/08/24 02:49:30;;;;;;;3.38;2.80;;;;;;;;;;10146970;28;20140;-66
2022/08/24 02:54:24;;;;;;;2.60;2.40;;;;;;;;;;10146135;28;20055;-67
2022/08/24 02:59:18;;;;;;;2.75;2.55;;;;;;;;;;10145336;28;20411;-67
2022/08/24 03:04:13;;;;;;;3.72;2.65;;;;;;;;;;10147338;28;20041;-67
2022/08/24 03:09:07;;;;;;;3.15;2.70;;;;;;;;;;10148276;28;20061;-68
2022/08/24 03:14:00;;;;;;;4.03;3.17;;;;;;;;;;10147552;28;20056;-69
2022/08/24 03:18:54;;;;;;;6.03;3.75;;;;;;;;;;10158970;28;20131;-67
2022/08/24 03:23:51;;;;;;;4.97;3.72;;;;;;;;;;10157903;28;20053;-67
2022/08/24 03:28:45;;;;;;;4.30;3.95;;;;;;;;;;10145205;28;20499;-66
2022/08/24 03:33:42;;;;;;;5.60;4.53;;;;;;;;;;10147332;28;20561;-65
2022/08/24 03:38:36;;;;;;;3.97;3.58;;;;;;;;;;10158350;28;20502;-65
2022/08/24 03:43:45;;;;;;;7.07;4.90;;;;;;;;;;10145021;28;20052;-65
2022/08/24 03:48:39;;;;;;;5.22;4.70;;;;;;;;;;10153404;28;20079;-67
2022/08/24 03:53:33;;;;;;;6.22;3.42;;;;;;;;;;10159436;28;20445;-65
2022/08/24 03:58:29;;;;;;;5.50;3.22;;;;;;;;;;10151823;28;20406;-66
2022/08/24 04:03:22;;;;;;;2.92;2.42;;;;;;;;;;10161365;28;20041;-65
2022/08/24 04:08:19;;;;;;;2.92;2.50;;;;;;;;;;10148003;28;20402;-66
2022/08/24 04:13:15;;;;;;;7.45;3.50;;;;;;;;;;10165884;28;20495;-67
2022/08/24 04:18:09;;;;;;;5.07;4.53;;;;;;;;;;10152653;28;20084;-65
2022/08/24 04:23:03;;;;;;;6.25;4.40;;;;;;;;;;10133260;28;20500;-64
2022/08/24 04:27:58;;;;;;;6.50;4.50;;;;;;;;;;10160152;28;20438;-64
2022/08/24 04:32:53;;;;;;;6.55;4.15;;;;;;;;;;10131937;28;20053;-65
2022/08/24 04:37:46;;;;;;;6.57;4.25;;;;;;;;;;10149038;28;20048;-65
2022/08/24 04:42:41;;;;;;;6.70;4.85;;;;;;;;;;10131363;28;20048;-65
2022/08/24 04:47:34;;;;;;;4.97;4.22;;;;;;;;;;10135034;28;20071;-65
2022/08/24 04:52:28;;;;;;;5.32;4.75;;;;;;;;;;10132799;28;20048;-65
2022/08/24 04:57:21;;;;;;;6.20;4.70;;;;;;;;;;10155584;28;20526;-65
2022/08/24 05:02:17;;;;;;;11.57;4.05;;;;;;;;;;10146383;28;20441;-64
2022/08/24 05:07:13;;;;;;;4.45;3.10;;;;;;;;;;10145504;28;20048;-64
2022/08/24 05:12:09;;;;;;;4.57;3.15;;;;;;;;;;10145304;28;20076;-65
2022/08/24 05:17:07;;;;;;;3.67;2.40;;;;;;;;;;10129898;28;20044;-64
2022/08/24 05:22:02;;;;;;;11.00;2.55;;;;;;;;;;10151598;28;20079;-67
2022/08/24 05:26:57;;;;;;;2.90;1.95;;;;;;;;;;10154376;28;20514;-60
2022/08/24 05:31:51;;;;;;;3.78;2.03;;;;;;;;;;10143089;28;20534;-60
2022/08/24 05:36:46;;;;;;;1.77;1.55;;;;;;;;;;10151229;28;20556;-59
2022/08/24 05:41:51;;;;;;;3.05;1.45;;;;;;;;;;10148639;28;20513;-59
2022/08/24 05:46:50;;;;;;;3.42;1.70;;;;;;;;;;10146761;28;20411;-59
2022/08/24 05:51:45;;;;;;;4.35;1.70;;;;;;;;;;10145049;28;20056;-59
2022/08/24 05:56:40;;;;;;;2.05;1.65;;;;;;;;;;10140568;28;20052;-59
2022/08/24 06:01:35;;;;;;;2.97;1.38;;;;;;;;;;10152550;28;20444;-59
2022/08/24 06:06:28;;;;;;;6.50;1.50;;;;;;;;;;10142545;28;20079;-60
2022/08/24 06:11:25;;;;;;;4.43;1.58;;;;;;;;;;10128565;28;20079;-60
2022/08/24 06:16:22;;;;;;;4.28;1.63;;;;;;;;;;10146070;28;20044;-59
2022/08/24 06:21:20;;;;;;;2.25;1.48;;;;;;;;;;10124121;28;20063;-59
2022/08/24 06:31:27;;;;;;;3.03;1.17;;;;;;;;;;10129696;28;20111;-61
2022/08/24 06:36:30;;;;;;;6.05;1.70;;;;;;;;;;10128473;28;20045;-60
2022/08/24 06:41:25;;;;;;;6.07;1.50;;;;;;;;;;10133188;28;20052;-60
2022/08/24 06:46:19;;;;;;;5.47;1.88;;;;;;;;;;10139781;28;20345;-58
2022/08/24 06:51:19;;;;;;;7.38;1.35;;;;;;;;;;10131753;28;20071;-59
2022/08/24 06:56:12;;;;;;;8.48;1.85;;;;;;;;;;10137874;28;20105;-59
2022/08/24 07:01:27;;;;;;;4.68;1.23;;;;;;;;;;10130632;28;20124;-60
2022/08/24 07:06:22;;;;;;;9.27;1.70;;;;;;;;;;10127155;28;20053;-58
2022/08/24 07:11:17;;;;;;;12.13;1.45;;;;;;;;;;10117364;28;20044;-60
2022/08/24 07:16:12;;;;;;;11.80;1.55;;;;;;;;;;10124016;28;20049;-62
2022/08/24 07:21:07;;;;;;;2.58;2.25;;;;;;;;;;10110164;28;20474;-63
2022/08/24 07:26:12;;;;;;;11.95;1.48;;;;;;;;;;10130894;28;20056;-62
2022/08/24 07:31:14;;;;;;;7.00;1.73;;;;;;;;;;10114865;28;20723;-62
2022/08/24 07:36:18;;;;;;;10.07;3.20;;;;;;;;;;10129046;28;20056;-61
2022/08/24 07:41:14;;;;;;;6.25;1.50;;;;;;;;;;10127223;28;20045;-61
2022/08/24 07:46:28;;;;;;;1.27;0.88;;;;;;;;;;10134482;28;20037;-61
2022/08/24 07:51:23;;;;;;;1.20;0.80;;;;;;;;;;10136329;28;20053;-61
2022/08/24 07:56:17;;;;;;;2.08;0.90;;;;;;;;;;10141879;28;20053;-61
2022/08/24 08:01:13;;;;;;;2.47;0.68;;;;;;;;;;10138077;28;20048;-61
2022/08/24 08:06:07;;;;;;;1.88;0.63;;;;;;;;;;10140905;28;20049;-61
2022/08/24 08:11:10;;;;;;;5.57;0.80;;;;;;;;;;10131303;28;20080;-61
2022/08/24 08:16:06;;;;;;;3.30;0.82;;;;;;;;;;10144696;28;20049;-61
2022/08/24 08:26:40;;;;;;;4.78;1.20;;;;;;;;;;10116528;28;20040;-61
2022/08/24 08:31:44;;;;;;;2.47;0.70;;;;;;;;;;10139812;28;20052;-61
2022/08/24 08:36:40;;;;;;;4.95;0.68;;;;;;;;;;10141874;28;20040;-61
2022/08/24 08:41:57;;;;;;;0.60;0.47;;;;;;;;;;10143395;28;20071;-61
2022/08/24 08:47:42;;;;;;;4.60;0.60;;;;;;;;;;10141570;28;20526;-61
2022/08/24 08:53:12;;;;;;;0.63;0.40;;;;;;;;;;10078788;28;20094;-61
2022/08/24 08:58:10;;;;;;;3.30;0.70;;;;;;;;;;10127261;28;20517;-60
2022/08/24 09:03:20;;;;;;;0.85;0.68;;;;;;;;;;10142186;28;20131;-60
2022/08/24 09:09:25;;;;;;;6.07;0.80;;;;;;;;;;10136063;28;20109;-61
2022/08/24 09:14:43;;;;;;;2.25;0.70;;;;;;;;;;10155334;28;20084;-60
2022/08/24 09:20:09;;;;;;;4.30;0.70;;;;;;;;;;10158858;28;20403;-60
2022/08/24 09:25:13;;;;;;;2.47;0.50;;;;;;;;;;10103117;28;20151;-60
2022/08/24 09:30:18;;;;;;;2.55;0.80;;;;;;;;;;10129805;28;20068;-60
2022/08/24 09:35:20;;;;;;;5.30;0.80;;;;;;;;;;10136567;28;20064;-61
2022/08/24 09:40:43;;;;;;;2.90;0.98;;;;;;;;;;10128849;28;20102;-62
2022/08/24 09:45:55;;;;;;;4.10;0.60;;;;;;;;;;10151217;28;20114;-62
2022/08/24 09:51:13;;;;;;;1.27;0.73;;;;;;;;;;10133526;28;20063;-61
2022/08/24 09:56:42;;;;;;;2.65;1.85;;;;;;;;;;10127514;28;20128;-60
2022/08/24 10:01:41;;;;;;;2.45;0.60;;;;;;;;;;10094390;28;20045;-61
2022/08/24 10:07:03;;;;;;;0.63;0.60;;;;;;;;;;10139893;28;20050;-59
2022/08/24 10:12:03;;;;;;;3.65;0.60;;;;;;;;;;10142281;28;20067;-60
2022/08/24 10:17:18;;;;;;;1.17;0.60;;;;;;;;;;10132979;28;20110;-60
2022/08/24 10:22:26;;;;;;;3.45;0.73;;;;;;;;;;10132071;28;20052;-61
2022/08/24 10:27:51;;;;;;;0.98;0.68;;;;;;;;;;10132251;28;20048;-60
2022/08/24 10:32:47;;;;;;;0.90;0.70;;;;;;;;;;10132796;28;20049;-61
2022/08/24 10:43:55;;;;;;;3.28;0.57;;;;;;;;;;10131976;28;20066;-60
2022/08/24 10:49:13;;;;;;;1.67;0.50;;;;;;;;;;10136304;28;20047;-61
2022/08/24 10:54:12;;;;;;;1.38;0.50;;;;;;;;;;10128611;28;20099;-61
2022/08/24 10:59:24;;;;;;;3.00;0.68;;;;;;;;;;10126663;28;20120;-60
2022/08/24 11:04:26;;;;;;;0.82;0.60;;;;;;;;;;10127098;28;20048;-61
2022/08/24 11:09:39;;;;;;;4.72;1.00;;;;;;;;;;10114862;28;20052;-62
2022/08/24 11:15:12;;;;;;;1.77;0.80;;;;;;;;;;10108211;28;20216;-58
2022/08/24 11:20:25;;;;;;;0.70;0.47;;;;;;;;;;10116478;28;20054;-58
2022/08/24 11:25:25;;;;;;;1.75;0.60;;;;;;;;;;10110064;28;20053;-59
2022/08/24 11:30:25;;;;;;;3.70;0.70;;;;;;;;;;10127916;28;20053;-61
2022/08/24 11:35:23;;;;;;;4.30;0.88;;;;;;;;;;10116350;28;20059;-61
2022/08/24 11:40:20;;;;;;;0.65;0.60;;;;;;;;;;10117372;28;20059;-63
2022/08/24 11:45:21;;;;;;;0.70;0.70;;;;;;;;;;10125262;28;20521;-60
2022/08/24 11:50:32;;;;;;;4.72;0.68;;;;;;;;;;10135594;28;20044;-60
2022/08/24 11:55:38;;;;;;;3.13;0.75;;;;;;;;;;10123741;28;20052;-60
2022/08/24 12:00:56;;;;;;;1.05;0.57;;;;;;;;;;10135394;28;20074;-60
2022/08/24 12:06:00;;;;;;;5.00;1.88;;;;;;;;;;10136704;28;20045;-60
2022/08/24 12:11:17;;;;;;;2.45;0.68;;;;;;;;;;10132689;28;20061;-60
2022/08/24 12:16:52;;;;;;;4.55;1.00;;;;;;;;;;10137323;28;20415;-60
2022/08/24 12:21:49;;;;;;;1.77;0.90;;;;;;;;;;10131701;28;20411;-61
2022/08/24 12:27:35;;;;;;;0.63;0.60;;;;;;;;;;10126696;28;20061;-61
2022/08/24 12:33:01;;;;;;;1.42;0.73;;;;;;;;;;10140548;28;20475;-61
2022/08/24 12:37:58;;;;;;;4.53;0.70;;;;;;;;;;10144073;28;20442;-61
2022/08/24 12:42:55;;;;;;;2.08;0.80;;;;;;;;;;10141915;28;20078;-60
2022/08/24 12:48:00;;;;;;;1.60;0.60;;;;;;;;;;10146183;28;20056;-60
2022/08/24 12:53:30;;;;;;;0.60;0.60;;;;;;;;;;10136655;28;20048;-62
2022/08/24 12:58:46;;;;;;;5.72;0.70;;;;;;;;;;10135565;28;20521;-61
2022/08/24 13:04:01;;;;;;;0.63;0.50;;;;;;;;;;10138822;28;20063;-61
2022/08/24 13:09:26;;;;;;;0.75;0.50;;;;;;;;;;10129432;28;20049;-61
2022/08/24 13:14:32;;;;;;;1.02;0.60;;;;;;;;;;10128502;28;20079;-61
2022/08/24 13:19:43;;;;;;;1.05;0.70;;;;;;;;;;10118589;28;20549;-61
2022/08/24 13:24:55;;;;;;;2.20;0.45;;;;;;;;;;10123675;28;20052;-61
2022/08/24 13:30:29;;;;;;;1.77;0.60;;;;;;;;;;10127689;28;20518;-61
2022/08/24 13:35:39;;;;;;;0.95;0.50;;;;;;;;;;10144283;28;20049;-61
2022/08/24 13:40:58;;;;;;;0.40;0.28;;;;;;;;;;10143846;28;20119;-61
2022/08/24 13:46:21;;;;;;;2.58;0.50;;;;;;;;;;10136624;28;20044;-61
2022/08/24 13:51:40;;;;;;;4.88;0.50;;;;;;;;;;10129977;28;20380;-61
2022/08/24 13:56:59;;;;;;;1.90;0.50;;;;;;;;;;10144272;28;20132;-61
2022/08/24 14:02:28;;;;;;;1.70;0.50;;;;;;;;;;10147181;28;20048;-61
2022/08/24 14:07:33;;;;;;;4.35;0.70;;;;;;;;;;10140890;28;20053;-61
2022/08/24 14:12:29;;;;;;;4.78;0.60;;;;;;;;;;10146491;28;20048;-63
2022/08/24 14:22:59;;;;;;;1.17;0.57;;;;;;;;;;10132336;28;19948;-64
2022/08/24 14:27:58;;;;;;;3.58;0.47;;;;;;;;;;10129818;28;20131;-63
2022/08/24 14:33:00;;;;;;;1.42;0.30;;;;;;;;;;10124886;28;20051;-62
2022/08/24 14:38:09;;;;;;;3.70;0.65;;;;;;;;;;10124044;28;20407;-62
2022/08/24 14:43:10;;;;;;;1.77;0.65;;;;;;;;;;10134454;28;20261;-62
2022/08/24 14:48:26;;;;;;;1.58;0.70;;;;;;;;;;10135706;28;20064;-62
2022/08/24 14:53:51;;;;;;;1.67;0.95;;;;;;;;;;10138719;28;20078;-62
2022/08/24 14:59:08;;;;;;;0.75;0.50;;;;;;;;;;10139558;28;20309;-62
2022/08/24 15:04:46;;;;;;;4.88;0.60;;;;;;;;;;10135190;28;20076;-62
2022/08/24 15:09:43;;;;;;;9.10;0.70;;;;;;;;;;10129678;28;20076;-62
2022/08/24 15:14:47;;;;;;;0.50;0.50;;;;;;;;;;10132374;28;20641;-62
2022/08/24 15:19:55;;;;;;;0.50;0.50;;;;;;;;;;10136898;28;20098;-62
2022/08/24 15:25:14;;;;;;;1.13;0.57;;;;;;;;;;10138518;28;20450;-61
2022/08/24 15:30:26;;;;;;;4.18;0.57;;;;;;;;;;10138798;28;20394;-61
2022/08/24 15:35:33;;;;;;;0.85;0.70;;;;;;;;;;10139703;28;20041;-61
2022/08/24 15:40:28;;;;;;;1.55;0.70;;;;;;;;;;10130849;28;20045;-62
2022/08/24 15:45:22;;;;;;;3.13;0.67;;;;;;;;;;10134025;28;20453;-62
2022/08/24 15:50:32;;;;;;;1.42;0.60;;;;;;;;;;10127337;28;20049;-63
2022/08/24 15:55:41;;;;;;;1.08;0.65;;;;;;;;;;10120946;28;20037;-64
2022/08/24 16:05:49;;;;;;;3.50;0.60;;;;;;;;;;10127823;28;20071;-64
2022/08/24 16:10:53;;;;;;;2.47;0.47;;;;;;;;;;10133053;28;20073;-65
2022/08/24 16:16:01;;;;;;;3.45;0.60;;;;;;;;;;10144701;28;20055;-64
2022/08/24 16:20:57;;;;;;;4.13;0.80;;;;;;;;;;10140224;28;20053;-64
2022/08/24 16:26:17;;;;;;;1.90;0.80;;;;;;;;;;10146664;28;20143;-65
2022/08/24 16:31:11;;;;;;;3.53;1.33;;;;;;;;;;10133471;28;20045;-62
2022/08/24 16:36:07;;;;;;;0.60;0.60;;;;;;;;;;10139451;28;20037;-62
2022/08/24 16:41:06;;;;;;;2.67;0.57;;;;;;;;;;10132151;28;20052;-68
2022/08/24 16:46:00;;;;;;;3.95;1.15;;;;;;;;;;10122809;28;20049;-64
2022/08/24 16:50:55;;;;;;;8.13;0.90;;;;;;;;;;10119632;28;20385;-64
2022/08/24 16:55:49;;;;;;;1.73;0.80;;;;;;;;;;10115016;28;20063;-63
2022/08/24 17:00:44;;;;;;;2.72;1.30;;;;;;;;;;10126612;28;20041;-62
2022/08/24 17:05:38;;;;;;;28.00;2.55;;;;;;;;;;10134849;28;20061;-63
2022/08/24 17:10:33;;;;;;;2.67;1.13;;;;;;;;;;10146012;28;20060;-63
2022/08/24 17:15:30;;;;;;;3.03;0.85;;;;;;;;;;10145092;28;20490;-63
2022/08/24 17:20:25;;;;;;;2.40;0.80;;;;;;;;;;10147286;28;20438;-64
2022/08/24 17:25:19;;;;;;;4.85;0.90;;;;;;;;;;10139411;28;20135;-64
2022/08/24 17:30:19;;;;;;;3.50;0.93;;;;;;;;;;10147640;28;20044;-64
2022/08/24 17:35:14;;;;;;;0.88;0.80;;;;;;;;;;10143664;28;20068;-63
2022/08/24 17:40:11;;;;;;;3.45;1.73;;;;;;;;;;10138918;28;20097;-63
2022/08/24 17:45:08;;;;;;;1.10;1.00;;;;;;;;;;10129561;28;20053;-63
2022/08/24 17:50:03;;;;;;;1.88;0.93;;;;;;;;;;10140317;28;20044;-64
2022/08/24 17:55:00;;;;;;;1.70;1.00;;;;;;;;;;10140437;28;20095;-63
2022/08/24 17:59:54;;;;;;;1.25;1.05;;;;;;;;;;10139463;28;20109;-64
2022/08/24 18:04:48;;;;;;;4.25;2.15;;;;;;;;;;10133504;28;20568;-64
2022/08/24 18:09:52;;;;;;;5.72;1.05;;;;;;;;;;10155462;28;20071;-63
2022/08/24 18:14:47;;;;;;;2.67;1.10;;;;;;;;;;10145738;28;20060;-64
2022/08/24 18:19:42;;;;;;;1.10;0.80;;;;;;;;;;10146654;28;20044;-61
2022/08/24 18:24:37;;;;;;;1.20;1.02;;;;;;;;;;10143061;28;20507;-62
2022/08/24 18:29:31;;;;;;;5.35;1.13;;;;;;;;;;10144092;28;20072;-62
2022/08/24 18:34:26;;;;;;;2.03;1.38;;;;;;;;;;10132969;28;20122;-62
2022/08/24 18:39:21;;;;;;;3.70;2.40;;;;;;;;;;10122667;28;20136;-62
2022/08/24 18:44:16;;;;;;;3.35;1.92;;;;;;;;;;10135480;28;20059;-64
2022/08/24 18:49:11;;;;;;;1.23;1.13;;;;;;;;;;10120582;28;20088;-64
2022/08/24 18:54:11;;;;;;;3.40;1.10;;;;;;;;;;10129290;28;20048;-64
2022/08/24 18:59:13;;;;;;;2.28;1.00;;;;;;;;;;10114658;28;20136;-65
2022/08/24 19:04:07;;;;;;;3.13;1.52;;;;;;;;;;10139044;28;20510;-67
2022/08/24 19:09:06;;;;;;;3.80;1.33;;;;;;;;;;10140666;28;20451;-66
2022/08/24 19:14:00;;;;;;;5.90;1.77;;;;;;;;;;10133216;28;20490;-66
2022/08/24 19:18:55;;;;;;;5.82;1.20;;;;;;;;;;10115427;28;20496;-68
2022/08/24 19:23:49;;;;;;;4.72;1.50;;;;;;;;;;10126294;28;20057;-65
2022/08/24 19:28:45;;;;;;;3.08;1.20;;;;;;;;;;10135898;28;20118;-65
2022/08/24 19:33:45;;;;;;;2.63;1.30;;;;;;;;;;10135827;28;20128;-66
2022/08/24 19:38:42;;;;;;;2.50;1.55;;;;;;;;;;10140657;28;20446;-65
2022/08/24 19:46:00;;;;;;;5.45;1.10;;;;;;;;;;10137019;28;20048;-61
2022/08/24 19:48:51;;;;;;;5.35;1.23;;;;;;;;;;10130054;28;20059;-71
2022/08/24 19:53:45;;;;;;;6.00;1.27;;;;;;;;;;10122295;28;20060;-68
2022/08/24 19:58:45;;;;;;;4.03;1.50;;;;;;;;;;10130303;28;20101;-68
2022/08/24 20:03:39;;;;;;;4.03;1.55;;;;;;;;;;10127954;28;20090;-66
2022/08/24 20:08:32;;;;;;;7.20;1.65;;;;;;;;;;10111374;28;20041;-66
2022/08/24 20:13:27;;;;;;;9.90;1.85;;;;;;;;;;10116121;28;20048;-68
2022/08/24 20:18:25;;;;;;;3.17;1.80;;;;;;;;;;10125842;28;20043;-66
2022/08/24 20:23:20;;;;;;;3.40;1.80;;;;;;;;;;10116505;28;20045;-65
2022/08/24 20:28:15;;;;;;;2.88;1.77;;;;;;;;;;10130592;28;20048;-69
2022/08/24 20:33:29;;;;;;;4.53;1.92;;;;;;;;;;10125290;28;20045;-67
2022/08/24 20:38:25;;;;;;;5.82;1.50;;;;;;;;;;10127818;28;20041;-66
2022/08/24 20:43:23;;;;;;;7.75;2.70;;;;;;;;;;10132129;28;20131;-64
2022/08/24 20:48:26;;;;;;;4.20;1.73;;;;;;;;;;10131052;28;20044;-65
2022/08/24 20:53:20;;;;;;;4.07;1.70;;;;;;;;;;10128284;28;20075;-64
2022/08/24 20:58:17;;;;;;;4.32;1.70;;;;;;;;;;10131914;28;20771;-65
2022/08/24 21:03:14;;;;;;;2.22;1.50;;;;;;;;;;10130794;28;20048;-64
2022/08/24 21:08:09;;;;;;;;;;;;;;;;;;10116164;28;20045;-65
2022/08/24 21:13:04;;;;;;;4.78;2.08;;;;;;;;;;10130846;28;19927;-65
2022/08/24 21:17:58;;;;;;;5.35;1.77;;;;;;;;;;10124253;28;20103;-65
2022/08/24 21:22:53;;;;;;;5.57;3.03;;;;;;;;;;10128609;28;20194;-65
2022/08/24 21:27:48;;;;;;;4.80;1.85;;;;;;;;;;10140762;28;20052;-65
2022/08/24 21:37:53;;;;;;;3.30;2.15;;;;;;;;;;10132973;28;20049;-65
2022/08/24 21:42:47;;;;;;;2.55;1.80;;;;;;;;;;10137043;28;20548;-65
2022/08/24 21:47:43;;;;;;;6.78;2.15;;;;;;;;;;10133582;28;20106;-65
2022/08/24 21:52:37;;;;;;;5.20;2.00;;;;;;;;;;10135713;28;20061;-67
2022/08/24 21:57:31;;;;;;;9.13;2.15;;;;;;;;;;10139175;28;20117;-64
2022/08/24 22:02:28;;;;;;;5.93;1.85;;;;;;;;;;10136271;28;20492;-64
2022/08/24 22:07:23;;;;;;;1.98;1.73;;;;;;;;;;10132147;28;20063;-63
2022/08/24 22:12:18;;;;;;;3.60;1.80;;;;;;;;;;10146559;28;20083;-63
2022/08/24 22:17:12;;;;;;;4.78;1.80;;;;;;;;;;10142973;28;20047;-63
2022/08/24 22:22:06;;;;;;;4.53;1.42;;;;;;;;;;10149959;28;20044;-65
2022/08/24 22:27:00;;;;;;;3.03;1.60;;;;;;;;;;10151551;28;20589;-64
2022/08/24 22:31:54;;;;;;;3.60;1.65;;;;;;;;;;10144968;28;20064;-64
2022/08/24 22:36:49;;;;;;;1.90;1.70;;;;;;;;;;10139811;28;20044;-63
2022/08/24 22:41:43;;;;;;;2.90;1.50;;;;;;;;;;10148661;28;20078;-63
2022/08/24 22:46:38;;;;;;;3.35;1.60;;;;;;;;;;10133056;28;20048;-66
2022/08/24 22:51:32;;;;;;;2.00;1.50;;;;;;;;;;10121219;28;20380;-64
2022/08/24 22:56:28;;;;;;;2.35;1.75;;;;;;;;;;10123162;28;20084;-66
2022/08/24 23:01:34;;;;;;;1.38;1.15;;;;;;;;;;10124739;28;20514;-64
2022/08/24 23:06:28;;;;;;;3.30;1.58;;;;;;;;;;10132741;28;20074;-66
2022/08/24 23:11:25;;;;;;;3.50;1.85;;;;;;;;;;10135469;28;20052;-66
2022/08/24 23:16:19;;;;;;;4.00;1.55;;;;;;;;;;10136482;28;20094;-64
2022/08/24 23:21:13;;;;;;;6.18;1.98;;;;;;;;;;10134035;28;20071;-63
2022/08/24 23:26:07;;;;;;;3.08;1.25;;;;;;;;;;10129317;28;20131;-64
2022/08/24 23:31:10;;;;;;;3.25;1.50;;;;;;;;;;10131070;28;20045;-64
2022/08/24 23:36:07;;;;;;;15.57;3.03;;;;;;;;;;10144106;28;20121;-65
2022/08/24 23:41:06;;;;;;;2.75;1.50;;;;;;;;;;10137620;28;20052;-65
2022/08/24 23:45:59;;;;;;;1.95;1.77;;;;;;;;;;10143923;28;20458;-64
2022/08/24 23:50:58;;;;;;;2.10;1.60;;;;;;;;;;10139847;28;20128;-64
2022/08/24 23:55:53;;;;;;;1.63;1.52;;;;;;;;;;10129831;28;20049;-64
